Time;durP1;ratioP1;P1;durP2;ratioP2;P2;SDS_P1;SDS_P2;PMS_P1;PMS_P2;Temp;Humidity;BMP_temperature;BMP_pressure;BME280_temperature;BME280_humidity;BME280_pressure;Samples;Min_cycle;Max_cycle;Signal;HPM_P1;HPM_P2
2024/03/07 00:00:19;;;;;;;23.45;10.05;;;6.70;99.90;;;;;;4987100;28;20442;-69
2024/03/07 00:02:47;;;;;;;24.20;9.88;;;6.70;99.90;;;;;;5005958;28;20114;-69
2024/03/07 00:05:14;;;;;;;28.77;11.65;;;6.60;99.90;;;;;;4984627;28;20034;-69
2024/03/07 00:07:41;;;;;;;23.52;11.18;;;6.60;99.90;;;;;;5009101;28;20109;-69
2024/03/07 00:10:07;;;;;;;22.33;10.38;;;6.50;99.90;;;;;;4986647;28;20068;-69
2024/03/07 00:12:41;;;;;;;20.63;10.63;;;6.50;99.90;;;;;;4991591;28;20535;-69
2024/03/07 00:15:10;;;;;;;28.55;11.95;;;6.50;99.90;;;;;;5005658;28;20064;-69
2024/03/07 00:17:39;;;;;;;27.23;10.90;;;6.40;99.90;;;;;;4994421;28;20030;-69
2024/03/07 00:20:14;;;;;;;24.98;10.40;;;6.40;99.90;;;;;;5005442;28;20060;-69
2024/03/07 00:22:42;;;;;;;25.42;11.40;;;6.30;99.90;;;;;;4994654;28;20034;-69
2024/03/07 00:25:09;;;;;;;29.35;10.70;;;6.30;99.90;;;;;;4989163;28;20419;-69
2024/03/07 00:27:36;;;;;;;27.83;10.68;;;6.40;99.90;;;;;;4994179;28;20122;-69
2024/03/07 00:30:13;;;;;;;27.15;9.88;;;6.30;99.90;;;;;;4990423;28;20184;-69
2024/03/07 00:32:40;;;;;;;25.83;9.75;;;6.20;99.90;;;;;;4994089;28;20034;-69
2024/03/07 00:35:08;;;;;;;31.83;11.20;;;6.10;99.90;;;;;;4988701;28;20173;-67
2024/03/07 00:37:35;;;;;;;40.33;13.05;;;6.10;99.90;;;;;;5010568;28;20100;-68
2024/03/07 00:40:00;;;;;;;23.05;10.98;;;6.00;99.90;;;;;;5005026;28;20026;-68
2024/03/07 00:42:27;;;;;;;26.88;9.43;;;6.00;99.90;;;;;;5010481;28;20081;-68
2024/03/07 00:44:53;;;;;;;33.70;12.43;;;6.00;99.90;;;;;;5004973;28;20123;-68
2024/03/07 00:47:19;;;;;;;32.85;12.25;;;5.90;99.90;;;;;;4993751;28;20820;-68
2024/03/07 00:49:46;;;;;;;28.00;10.65;;;5.90;99.90;;;;;;4988966;28;20479;-68
2024/03/07 00:52:13;;;;;;;26.70;11.98;;;5.90;99.90;;;;;;5001892;28;20033;-68
2024/03/07 00:54:39;;;;;;;25.60;10.82;;;5.90;99.90;;;;;;4989095;28;20030;-69
2024/03/07 00:57:05;;;;;;;26.58;10.40;;;5.90;99.90;;;;;;4994405;28;20038;-69
2024/03/07 00:59:30;;;;;;;21.70;11.10;;;5.90;99.90;;;;;;4989039;28;20487;-68
2024/03/07 01:01:56;;;;;;;37.78;13.63;;;5.90;99.90;;;;;;4993639;28;20023;-69
2024/03/07 01:04:22;;;;;;;26.48;10.35;;;5.90;99.90;;;;;;4988571;28;20092;-69
2024/03/07 01:06:48;;;;;;;23.63;11.77;;;5.90;99.90;;;;;;4993578;28;20113;-69
2024/03/07 01:09:14;;;;;;;31.30;11.70;;;5.90;99.90;;;;;;4994215;28;20023;-69
2024/03/07 01:11:43;;;;;;;27.77;11.50;;;6.00;99.90;;;;;;5009584;28;20022;-68
2024/03/07 01:14:09;;;;;;;32.78;12.10;;;5.90;99.90;;;;;;4988174;28;20142;-69
2024/03/07 01:16:34;;;;;;;31.48;9.75;;;5.90;99.90;;;;;;4994657;28;20097;-69
2024/03/07 01:19:01;;;;;;;26.95;11.23;;;5.90;99.90;;;;;;5008817;28;20082;-68
2024/03/07 01:21:27;;;;;;;31.67;10.75;;;5.90;99.90;;;;;;5009541;28;20032;-68
2024/03/07 01:23:53;;;;;;;28.42;11.93;;;5.90;99.90;;;;;;5003327;28;20031;-68
2024/03/07 01:26:19;;;;;;;26.23;11.70;;;5.90;99.90;;;;;;4994010;28;20022;-68
2024/03/07 01:28:44;;;;;;;30.20;12.20;;;5.80;99.90;;;;;;4988182;28;20033;-68
2024/03/07 01:31:10;;;;;;;27.55;12.60;;;5.80;99.90;;;;;;4994005;28;20574;-69
2024/03/07 01:33:36;;;;;;;25.27;11.20;;;5.80;99.90;;;;;;4991349;28;20042;-69
2024/03/07 01:36:02;;;;;;;26.83;11.90;;;5.90;99.90;;;;;;5007481;28;20030;-69
2024/03/07 01:38:28;;;;;;;27.15;12.73;;;5.90;99.90;;;;;;4991685;28;20065;-69
2024/03/07 01:40:54;;;;;;;31.77;14.20;;;5.90;99.90;;;;;;4991632;28;20089;-69
2024/03/07 01:43:21;;;;;;;26.52;11.38;;;5.90;99.90;;;;;;4991223;28;20105;-69
2024/03/07 01:45:47;;;;;;;23.85;10.88;;;5.80;99.90;;;;;;5005616;28;20022;-69
2024/03/07 01:48:24;;;;;;;31.42;11.30;;;5.70;99.90;;;;;;5000463;28;20506;-69
2024/03/07 01:50:50;;;;;;;23.70;11.13;;;5.80;99.90;;;;;;5005176;28;20030;-69
2024/03/07 01:53:17;;;;;;;26.42;12.40;;;5.60;99.90;;;;;;4991369;28;20168;-68
2024/03/07 01:55:44;;;;;;;29.67;12.32;;;5.60;99.90;;;;;;4989814;28;20027;-69
2024/03/07 01:58:14;;;;;;;30.00;12.57;;;5.70;99.90;;;;;;4993418;28;20033;-69
2024/03/07 02:00:40;;;;;;;28.27;14.18;;;5.80;99.90;;;;;;4987831;28;20475;-69
2024/03/07 02:03:06;;;;;;;26.83;11.38;;;5.80;99.90;;;;;;4993254;28;20034;-69
2024/03/07 02:05:34;;;;;;;25.35;11.80;;;5.80;99.90;;;;;;4985082;28;20034;-69
2024/03/07 02:08:01;;;;;;;30.45;10.38;;;5.80;99.90;;;;;;5006776;28;20398;-68
2024/03/07 02:10:27;;;;;;;30.80;11.90;;;5.70;99.90;;;;;;4986805;28;20034;-69
2024/03/07 02:12:53;;;;;;;30.23;13.02;;;5.50;99.90;;;;;;5007837;28;20026;-69
2024/03/07 02:15:19;;;;;;;20.50;9.25;;;5.60;99.90;;;;;;4990685;28;20084;-69
2024/03/07 02:17:44;;;;;;;21.33;11.00;;;5.50;99.90;;;;;;4995714;28;20402;-69
2024/03/07 02:20:11;;;;;;;28.58;11.75;;;5.40;99.90;;;;;;4988130;28;20440;-68
2024/03/07 02:22:37;;;;;;;24.13;10.32;;;5.40;99.90;;;;;;4991755;28;20054;-69
2024/03/07 02:25:03;;;;;;;34.97;12.00;;;5.40;99.90;;;;;;4987759;28;20045;-69
2024/03/07 02:27:30;;;;;;;32.30;12.40;;;5.30;99.90;;;;;;4992880;28;20027;-69
2024/03/07 02:29:55;;;;;;;23.02;10.82;;;5.20;99.90;;;;;;4987920;28;20034;-69
2024/03/07 02:32:23;;;;;;;29.67;12.52;;;5.10;99.90;;;;;;4991455;28;20033;-69
2024/03/07 02:34:49;;;;;;;31.95;12.50;;;5.10;99.90;;;;;;4987357;28;20034;-69
2024/03/07 02:37:14;;;;;;;26.20;11.65;;;5.00;99.90;;;;;;4992949;28;20096;-68
2024/03/07 02:39:40;;;;;;;24.02;12.48;;;5.00;99.90;;;;;;4987886;28;20104;-69
2024/03/07 02:42:06;;;;;;;31.77;12.40;;;4.90;99.90;;;;;;4992658;28;20058;-69
2024/03/07 02:44:32;;;;;;;24.98;10.70;;;4.90;99.90;;;;;;4987317;28;20026;-69
2024/03/07 02:46:58;;;;;;;27.05;11.38;;;4.90;99.90;;;;;;4992548;28;20482;-69
2024/03/07 02:49:24;;;;;;;32.35;14.55;;;4.80;99.90;;;;;;4986031;28;20038;-69
2024/03/07 02:51:50;;;;;;;20.90;11.07;;;4.90;99.90;;;;;;4992535;28;20117;-69
2024/03/07 02:54:15;;;;;;;29.33;11.63;;;4.90;99.90;;;;;;5001861;28;20129;-69
2024/03/07 02:56:41;;;;;;;32.15;11.75;;;4.80;99.90;;;;;;4991474;28;20032;-69
2024/03/07 02:59:07;;;;;;;25.15;11.82;;;4.80;99.90;;;;;;4987703;28;20096;-69
2024/03/07 03:01:33;;;;;;;30.17;13.48;;;4.80;99.90;;;;;;4992373;28;20026;-69
2024/03/07 03:03:59;;;;;;;23.10;10.18;;;4.70;99.90;;;;;;5006985;28;20454;-68
2024/03/07 03:06:24;;;;;;;29.00;12.57;;;4.70;99.90;;;;;;5000522;28;20030;-68
2024/03/07 03:08:50;;;;;;;22.33;10.40;;;4.70;99.90;;;;;;5001514;28;20501;-69
2024/03/07 03:11:16;;;;;;;25.30;11.20;;;4.80;99.90;;;;;;4998673;28;20115;-68
2024/03/07 03:13:42;;;;;;;24.95;9.90;;;4.70;99.90;;;;;;4997528;28;20038;-69
2024/03/07 03:16:10;;;;;;;28.17;11.88;;;4.70;99.90;;;;;;5000958;28;20145;-69
2024/03/07 03:18:36;;;;;;;20.52;11.25;;;4.60;99.90;;;;;;5013005;28;20496;-68
2024/03/07 03:21:02;;;;;;;26.67;10.98;;;4.60;99.90;;;;;;5003897;28;20030;-68
2024/03/07 03:23:29;;;;;;;23.95;10.98;;;4.60;99.90;;;;;;5015667;28;20035;-68
2024/03/07 03:25:55;;;;;;;27.13;11.25;;;4.60;99.90;;;;;;5019915;28;20021;-68
2024/03/07 03:28:22;;;;;;;34.88;13.10;;;4.50;99.90;;;;;;5016156;28;20025;-68
2024/03/07 03:30:50;;;;;;;24.33;12.18;;;4.50;99.90;;;;;;4999558;28;20508;-69
2024/03/07 03:33:16;;;;;;;19.85;10.18;;;4.50;99.90;;;;;;4995758;28;20037;-69
2024/03/07 03:35:43;;;;;;;21.75;10.20;;;4.40;99.90;;;;;;5000317;28;20034;-69
2024/03/07 03:38:09;;;;;;;24.88;11.20;;;4.40;99.90;;;;;;5000019;28;20066;-69
2024/03/07 03:40:35;;;;;;;25.55;10.25;;;4.30;99.90;;;;;;5010033;28;20054;-68
2024/03/07 03:43:01;;;;;;;22.98;12.90;;;4.30;99.90;;;;;;5018345;28;20123;-69
2024/03/07 03:45:28;;;;;;;29.65;11.02;;;4.30;99.90;;;;;;4999107;28;20030;-68
2024/03/07 03:47:54;;;;;;;26.52;11.77;;;4.20;99.90;;;;;;4989934;28;20027;-68
2024/03/07 03:50:20;;;;;;;23.98;11.27;;;4.10;99.90;;;;;;4996315;28;20034;-68
2024/03/07 03:52:46;;;;;;;25.95;10.75;;;4.10;99.90;;;;;;4996926;28;20038;-68
2024/03/07 03:55:12;;;;;;;29.52;11.73;;;4.00;99.90;;;;;;4997363;28;20489;-69
2024/03/07 03:57:41;;;;;;;28.98;11.88;;;4.00;99.90;;;;;;5012405;28;20030;-68
2024/03/07 04:00:12;;;;;;;22.63;11.25;;;4.00;99.90;;;;;;5002184;28;20080;-68
2024/03/07 04:02:39;;;;;;;23.02;10.15;;;3.90;99.90;;;;;;5014212;28;20080;-67
2024/03/07 04:05:05;;;;;;;22.42;9.98;;;3.90;99.90;;;;;;4997430;28;20040;-67
2024/03/07 04:07:31;;;;;;;25.50;10.50;;;3.90;99.90;;;;;;4991893;28;20030;-68
2024/03/07 04:10:02;;;;;;;26.35;8.98;;;3.80;99.90;;;;;;4999374;28;20033;-67
2024/03/07 04:12:29;;;;;;;;;;;3.80;99.90;;;;;;4999204;28;20429;-68
2024/03/07 04:14:55;;;;;;;14.80;8.68;;;3.80;99.90;;;;;;5013482;28;19932;-68
2024/03/07 04:17:21;;;;;;;18.67;8.95;;;3.80;99.90;;;;;;5016519;28;20052;-68
2024/03/07 04:19:47;;;;;;;24.48;10.05;;;3.70;99.90;;;;;;4992661;28;20372;-68
2024/03/07 04:22:13;;;;;;;23.23;10.43;;;3.70;99.90;;;;;;5001000;28;20109;-67
2024/03/07 04:24:40;;;;;;;28.92;10.40;;;3.60;99.90;;;;;;4999386;28;20487;-68
2024/03/07 04:27:07;;;;;;;27.98;10.63;;;3.70;99.90;;;;;;5013824;28;20089;-68
2024/03/07 04:29:34;;;;;;;23.50;11.43;;;3.70;99.90;;;;;;5015261;28;20038;-68
2024/03/07 04:32:04;;;;;;;31.90;10.65;;;3.70;99.90;;;;;;5018850;28;20026;-68
2024/03/07 04:34:31;;;;;;;30.13;12.13;;;3.60;99.90;;;;;;5012936;28;20028;-68
2024/03/07 04:37:01;;;;;;;28.63;12.60;;;3.60;99.90;;;;;;4999879;28;20022;-68
2024/03/07 04:39:33;;;;;;;23.47;10.60;;;3.60;99.90;;;;;;5011125;28;20030;-68
2024/03/07 04:42:01;;;;;;;23.20;10.43;;;3.60;99.90;;;;;;5000316;28;20092;-68
2024/03/07 04:44:30;;;;;;;28.10;9.18;;;3.60;99.90;;;;;;5002207;28;20372;-68
2024/03/07 04:47:00;;;;;;;21.23;9.05;;;3.50;99.90;;;;;;4999458;28;20044;-68
2024/03/07 04:49:28;;;;;;;25.20;10.18;;;3.50;99.90;;;;;;5014832;28;20038;-68
2024/03/07 04:52:00;;;;;;;21.45;9.88;;;3.50;99.90;;;;;;5011215;28;20042;-68
2024/03/07 04:54:28;;;;;;;24.45;9.77;;;3.40;99.90;;;;;;5000093;28;20478;-68
2024/03/07 04:56:55;;;;;;;21.63;11.00;;;3.30;99.90;;;;;;4997287;28;20057;-68
2024/03/07 04:59:21;;;;;;;36.55;11.10;;;3.20;99.90;;;;;;5018829;28;20022;-68
2024/03/07 05:01:52;;;;;;;23.17;8.60;;;3.20;99.90;;;;;;5003424;28;20030;-68
2024/03/07 05:04:18;;;;;;;22.98;8.68;;;3.20;99.90;;;;;;5004414;28;20038;-68
2024/03/07 05:06:47;;;;;;;18.50;9.57;;;3.20;99.90;;;;;;4998195;28;20050;-68
2024/03/07 05:09:22;;;;;;;20.67;10.10;;;3.20;99.90;;;;;;5004550;28;20084;-68
2024/03/07 05:11:52;;;;;;;18.65;8.48;;;3.10;99.90;;;;;;5015324;28;20101;-68
2024/03/07 05:14:19;;;;;;;25.60;11.05;;;3.10;99.90;;;;;;5018990;28;20036;-68
2024/03/07 05:16:45;;;;;;;22.42;9.80;;;3.00;99.90;;;;;;5015337;28;20015;-68
2024/03/07 05:19:10;;;;;;;33.03;11.10;;;3.00;99.90;;;;;;5019352;28;20089;-68
2024/03/07 05:21:40;;;;;;;24.17;11.70;;;3.00;99.90;;;;;;5019833;28;20050;-68
2024/03/07 05:24:09;;;;;;;30.05;9.07;;;3.00;99.90;;;;;;5003458;28;20037;-68
2024/03/07 05:26:40;;;;;;;29.52;10.88;;;3.00;99.90;;;;;;5003074;28;20030;-68
2024/03/07 05:29:08;;;;;;;21.77;10.68;;;2.90;99.90;;;;;;5000036;28;20060;-69
2024/03/07 05:31:44;;;;;;;23.02;10.02;;;3.00;99.90;;;;;;5018641;28;20130;-68
2024/03/07 05:34:09;;;;;;;23.88;10.18;;;3.00;99.90;;;;;;5014742;28;20030;-67
2024/03/07 05:36:36;;;;;;;33.65;11.13;;;2.90;99.90;;;;;;5016082;28;21361;-68
2024/03/07 05:39:10;;;;;;;23.63;12.13;;;2.90;99.90;;;;;;5012013;28;20031;-69
2024/03/07 05:41:37;;;;;;;34.25;15.32;;;2.90;99.90;;;;;;5018434;28;20030;-68
2024/03/07 05:44:04;;;;;;;28.10;14.38;;;2.90;99.90;;;;;;5000240;28;20040;-68
2024/03/07 05:46:30;;;;;;;29.27;12.50;;;3.00;99.90;;;;;;5019003;28;20039;-68
2024/03/07 05:48:56;;;;;;;20.38;10.02;;;3.00;99.90;;;;;;5000695;28;20335;-68
2024/03/07 05:51:25;;;;;;;30.85;14.18;;;2.90;99.90;;;;;;5000588;28;20041;-67
2024/03/07 05:53:51;;;;;;;21.85;10.05;;;2.90;99.90;;;;;;5000757;28;20034;-67
2024/03/07 05:56:17;;;;;;;24.02;10.43;;;2.80;99.90;;;;;;4997186;28;20033;-66
2024/03/07 05:58:43;;;;;;;33.03;9.98;;;2.80;99.90;;;;;;4998466;28;20019;-67
2024/03/07 06:01:09;;;;;;;20.90;10.55;;;2.80;99.90;;;;;;5014275;28;20399;-67
2024/03/07 06:03:35;;;;;;;28.10;12.07;;;2.80;99.90;;;;;;5016100;28;20393;-67
2024/03/07 06:06:01;;;;;;;21.45;9.52;;;2.70;99.90;;;;;;4997163;28;20033;-67
2024/03/07 06:08:27;;;;;;;19.75;10.60;;;2.70;99.90;;;;;;5019371;28;20026;-67
2024/03/07 06:10:53;;;;;;;20.83;9.77;;;2.60;99.90;;;;;;4996975;28;20026;-67
2024/03/07 06:13:19;;;;;;;16.40;8.32;;;2.60;99.90;;;;;;5017302;28;20025;-67
2024/03/07 06:15:46;;;;;;;18.15;9.90;;;2.40;99.90;;;;;;5002867;28;20073;-67
2024/03/07 06:18:15;;;;;;;23.05;9.45;;;2.50;99.90;;;;;;5007685;28;20398;-67
2024/03/07 06:20:42;;;;;;;21.98;9.07;;;2.40;99.90;;;;;;5007291;28;20435;-67
2024/03/07 06:23:10;;;;;;;28.08;9.82;;;2.40;99.90;;;;;;5007051;28;20137;-66
2024/03/07 06:25:50;;;;;;;19.30;8.27;;;2.40;99.90;;;;;;5007691;28;20057;-66
2024/03/07 06:28:16;;;;;;;23.75;11.18;;;2.50;99.90;;;;;;4992887;28;20026;-66
2024/03/07 06:30:45;;;;;;;27.13;11.07;;;2.50;99.90;;;;;;4992459;28;20040;-67
2024/03/07 06:33:11;;;;;;;20.48;11.18;;;2.50;99.90;;;;;;5006846;28;20122;-67
2024/03/07 06:35:38;;;;;;;24.02;9.57;;;2.50;99.90;;;;;;4990966;28;20045;-67
2024/03/07 06:38:08;;;;;;;19.35;9.77;;;2.50;99.90;;;;;;5006140;28;20022;-67
2024/03/07 06:40:42;;;;;;;27.00;11.27;;;2.60;99.90;;;;;;5007719;28;20082;-67
2024/03/07 06:43:11;;;;;;;24.48;9.98;;;2.60;99.90;;;;;;5006116;28;20506;-67
2024/03/07 06:45:38;;;;;;;22.45;10.00;;;2.70;99.90;;;;;;5006745;28;20026;-67
2024/03/07 06:48:07;;;;;;;26.15;10.80;;;2.80;99.90;;;;;;5005329;28;20069;-67
2024/03/07 06:50:37;;;;;;;20.73;10.48;;;2.80;99.90;;;;;;5005887;28;20030;-67
2024/03/07 06:53:03;;;;;;;21.58;11.02;;;2.80;99.90;;;;;;5005842;28;20085;-66
2024/03/07 06:55:29;;;;;;;26.13;12.18;;;2.90;99.90;;;;;;4992132;28;20018;-66
2024/03/07 06:57:55;;;;;;;27.40;10.95;;;3.00;99.90;;;;;;4990108;28;20033;-67
2024/03/07 07:00:21;;;;;;;29.05;10.73;;;3.00;99.90;;;;;;5007471;28;20061;-67
2024/03/07 07:02:48;;;;;;;25.05;10.15;;;3.10;99.90;;;;;;4989004;28;20045;-68
2024/03/07 07:05:15;;;;;;;26.27;11.43;;;3.20;99.90;;;;;;4991099;28;20030;-67
2024/03/07 07:07:45;;;;;;;19.83;8.93;;;3.30;99.90;;;;;;4989537;28;20031;-68
2024/03/07 07:10:15;;;;;;;22.20;9.40;;;3.30;99.90;;;;;;4992521;28;20046;-66
2024/03/07 07:12:54;;;;;;;24.15;9.55;;;3.40;99.90;;;;;;5004862;28;20047;-53
2024/03/07 07:15:20;;;;;;;19.52;9.85;;;3.70;99.90;;;;;;4982872;28;20030;-55
2024/03/07 07:17:48;;;;;;;27.25;11.00;;;3.90;99.90;;;;;;4990167;28;20018;-54
2024/03/07 07:20:18;;;;;;;23.42;10.25;;;4.10;99.90;;;;;;5006739;28;20029;-56
2024/03/07 07:22:47;;;;;;;18.15;9.45;;;4.30;99.90;;;;;;4989380;28;20021;-54
2024/03/07 07:25:14;;;;;;;28.80;10.30;;;4.40;99.90;;;;;;4991343;28;20038;-53
2024/03/07 07:27:42;;;;;;;25.70;9.38;;;4.50;99.90;;;;;;4988492;28;20030;-55
2024/03/07 07:30:13;;;;;;;24.08;10.88;;;4.40;99.90;;;;;;4991191;28;20042;-65
2024/03/07 07:32:40;;;;;;;26.30;10.60;;;4.40;99.90;;;;;;4988607;28;20541;-66
2024/03/07 07:35:13;;;;;;;21.17;9.07;;;4.60;99.90;;;;;;4990152;28;20042;-65
2024/03/07 07:37:43;;;;;;;28.60;9.93;;;4.70;99.90;;;;;;4990351;28;20030;-65
2024/03/07 07:40:14;;;;;;;20.43;10.50;;;4.90;99.90;;;;;;5006669;28;20156;-65
2024/03/07 07:42:41;;;;;;;23.00;10.05;;;4.80;99.90;;;;;;5005420;28;20027;-66
2024/03/07 07:45:11;;;;;;;25.98;10.43;;;4.90;99.90;;;;;;5006090;28;20034;-66
2024/03/07 07:47:51;;;;;;;34.40;10.73;;;4.90;99.90;;;;;;4989835;28;20062;-66
2024/03/07 07:50:20;;;;;;;24.63;11.53;;;5.00;99.90;;;;;;5006914;28;20184;-66
2024/03/07 07:52:50;;;;;;;26.95;11.02;;;5.10;99.90;;;;;;4993610;28;20403;-66
2024/03/07 07:55:22;;;;;;;25.35;10.38;;;5.10;99.90;;;;;;4991425;28;20064;-67
2024/03/07 07:57:54;;;;;;;22.48;7.97;;;5.20;99.90;;;;;;4989752;28;20088;-66
2024/03/07 08:00:28;;;;;;;27.35;10.63;;;5.30;99.90;;;;;;5005178;28;20482;-67
2024/03/07 08:02:54;;;;;;;21.27;10.77;;;5.00;99.90;;;;;;5004325;28;20034;-65
2024/03/07 08:05:25;;;;;;;17.52;9.38;;;5.10;99.90;;;;;;4989887;28;20112;-65
2024/03/07 08:07:52;;;;;;;18.50;8.07;;;5.00;99.90;;;;;;4989987;28;20371;-66
2024/03/07 08:10:20;;;;;;;16.00;8.45;;;5.20;99.90;;;;;;4991832;28;20112;-66
2024/03/07 08:12:46;;;;;;;23.90;10.10;;;5.30;99.90;;;;;;4988939;28;20027;-66
2024/03/07 08:15:13;;;;;;;19.25;9.30;;;5.20;99.90;;;;;;5006092;28;20491;-65
2024/03/07 08:17:44;;;;;;;18.92;8.68;;;5.20;99.90;;;;;;5006899;28;20027;-66
2024/03/07 08:20:15;;;;;;;28.67;10.07;;;5.40;99.90;;;;;;4973870;28;20048;-65
2024/03/07 08:22:43;;;;;;;;;;;5.50;99.90;;;;;;5004576;28;20286;-66
2024/03/07 08:25:15;;;;;;;18.40;7.75;;;5.60;99.90;;;;;;4995331;28;19913;-66
2024/03/07 08:27:47;;;;;;;21.92;8.10;;;5.80;99.90;;;;;;4989697;28;20057;-66
2024/03/07 08:30:15;;;;;;;21.58;11.13;;;6.00;99.90;;;;;;4991122;28;20430;-66
2024/03/07 08:32:58;;;;;;;22.55;9.40;;;6.10;99.90;;;;;;4989701;28;20232;-65
2024/03/07 08:35:25;;;;;;;18.50;7.90;;;6.10;99.90;;;;;;4986652;28;20026;-66
2024/03/07 08:37:55;;;;;;;18.75;8.50;;;6.00;99.90;;;;;;4992973;28;20031;-66
2024/03/07 08:40:32;;;;;;;21.97;8.90;;;6.10;99.90;;;;;;4994792;28;20030;-66
2024/03/07 08:42:59;;;;;;;16.17;8.10;;;6.40;99.90;;;;;;5006967;28;20138;-66
2024/03/07 08:45:26;;;;;;;21.60;9.05;;;6.50;99.90;;;;;;5009830;28;20022;-66
2024/03/07 08:47:55;;;;;;;21.13;8.27;;;6.40;99.90;;;;;;4992828;28;20144;-66
2024/03/07 08:50:21;;;;;;;15.00;7.57;;;6.60;99.90;;;;;;4995122;28;20061;-66
2024/03/07 08:52:48;;;;;;;22.63;6.68;;;6.60;99.90;;;;;;4991230;28;20046;-65
2024/03/07 08:55:25;;;;;;;23.90;6.95;;;6.70;99.90;;;;;;5009101;28;20018;-65
2024/03/07 08:57:51;;;;;;;11.95;5.03;;;6.80;99.90;;;;;;5007318;28;20374;-66
2024/03/07 09:00:24;;;;;;;13.02;5.93;;;6.90;99.90;;;;;;5009445;28;20034;-66
2024/03/07 09:02:58;;;;;;;25.17;7.60;;;6.50;99.90;;;;;;4992977;28;20048;-66
2024/03/07 09:05:25;;;;;;;17.67;6.80;;;6.80;99.90;;;;;;4987434;28;20042;-66
2024/03/07 09:07:53;;;;;;;13.77;5.72;;;7.20;99.90;;;;;;4991692;28;20030;-66
2024/03/07 09:10:19;;;;;;;9.98;5.95;;;7.20;99.90;;;;;;5001688;28;20037;-65
2024/03/07 09:12:49;;;;;;;9.57;5.75;;;7.00;99.90;;;;;;4992412;28;20628;-66
2024/03/07 09:15:17;;;;;;;12.23;5.45;;;7.20;99.90;;;;;;4993998;28;20046;-66
2024/03/07 09:17:44;;;;;;;14.05;6.57;;;7.50;99.90;;;;;;4992730;28;20022;-66
2024/03/07 09:20:14;;;;;;;15.48;6.10;;;7.40;99.90;;;;;;4994400;28;20080;-66
2024/03/07 09:22:44;;;;;;;17.42;6.57;;;7.40;99.90;;;;;;4992245;28;20067;-66
2024/03/07 09:25:12;;;;;;;13.50;6.40;;;7.40;99.90;;;;;;4993870;28;20034;-66
2024/03/07 09:27:40;;;;;;;9.13;5.30;;;7.80;99.90;;;;;;4991265;28;20383;-66
2024/03/07 09:30:11;;;;;;;11.57;5.40;;;7.90;99.90;;;;;;5008886;28;20434;-65
2024/03/07 09:32:41;;;;;;;16.00;6.68;;;7.90;99.90;;;;;;4992421;28;20061;-67
2024/03/07 09:35:11;;;;;;;11.60;5.60;;;7.90;99.90;;;;;;4993789;28;20022;-65
2024/03/07 09:37:42;;;;;;;12.43;6.10;;;8.00;99.90;;;;;;5007272;28;20053;-65
2024/03/07 09:40:09;;;;;;;13.98;5.93;;;7.90;99.90;;;;;;5008522;28;20054;-66
2024/03/07 09:42:48;;;;;;;30.40;9.40;;;7.90;99.90;;;;;;4992155;28;20038;-65
2024/03/07 09:45:19;;;;;;;13.93;5.22;;;8.10;99.90;;;;;;4993007;28;20522;-66
2024/03/07 09:47:47;;;;;;;30.08;8.73;;;7.90;99.90;;;;;;4992024;28;20030;-67
2024/03/07 09:50:24;;;;;;;14.85;6.28;;;8.20;99.90;;;;;;4993317;28;20387;-66
2024/03/07 09:52:55;;;;;;;10.68;4.95;;;8.30;99.90;;;;;;4990896;28;20041;-66
2024/03/07 09:55:23;;;;;;;11.25;6.13;;;8.10;99.90;;;;;;4984898;28;20455;-66
2024/03/07 09:57:50;;;;;;;19.75;5.93;;;8.40;99.90;;;;;;4991148;28;20031;-66
2024/03/07 10:00:24;;;;;;;15.07;6.57;;;8.20;99.90;;;;;;4991660;28;20062;-66
2024/03/07 10:02:56;;;;;;;17.00;6.63;;;8.30;99.90;;;;;;4991263;28;20088;-66
2024/03/07 10:05:26;;;;;;;13.32;5.93;;;8.50;99.90;;;;;;5008411;28;20034;-67
2024/03/07 10:07:52;;;;;;;10.98;6.05;;;8.40;99.90;;;;;;4991774;28;20422;-66
2024/03/07 10:10:19;;;;;;;14.40;6.15;;;8.30;99.90;;;;;;5008600;28;20061;-67
2024/03/07 10:12:49;;;;;;;14.43;5.90;;;8.00;99.90;;;;;;5006295;28;20661;-66
2024/03/07 10:15:17;;;;;;;13.80;6.30;;;7.90;99.90;;;;;;4991598;28;20376;-66
2024/03/07 10:17:44;;;;;;;15.35;6.05;;;8.20;99.90;;;;;;4994463;28;20033;-66
2024/03/07 10:20:13;;;;;;;15.02;5.97;;;8.50;99.90;;;;;;5007981;28;20023;-66
2024/03/07 10:22:41;;;;;;;18.92;6.10;;;8.30;99.90;;;;;;5005585;28;20041;-66
2024/03/07 10:25:07;;;;;;;14.40;7.18;;;8.40;99.90;;;;;;4992582;28;20041;-66
2024/03/07 10:27:38;;;;;;;20.13;6.93;;;8.50;99.90;;;;;;4990839;28;20088;-66
2024/03/07 10:30:07;;;;;;;17.70;7.18;;;8.40;99.90;;;;;;4991387;28;20061;-67
2024/03/07 10:32:33;;;;;;;12.30;6.40;;;8.50;99.90;;;;;;5004868;28;20407;-65
2024/03/07 10:34:59;;;;;;;13.20;5.22;;;8.60;99.90;;;;;;4992472;28;20061;-66
2024/03/07 10:37:25;;;;;;;21.92;7.28;;;8.90;99.90;;;;;;4990906;28;20030;-66
2024/03/07 10:39:51;;;;;;;15.50;6.53;;;9.10;99.90;;;;;;4991436;28;20029;-66
2024/03/07 10:42:21;;;;;;;14.32;5.88;;;9.00;99.90;;;;;;4990365;28;20042;-65
2024/03/07 10:44:48;;;;;;;18.05;7.00;;;9.20;99.90;;;;;;4991824;28;20022;-65
2024/03/07 10:47:20;;;;;;;15.85;6.82;;;9.00;99.90;;;;;;5005098;28;20038;-66
2024/03/07 10:50:25;;;;;;;16.45;7.72;;;9.20;99.90;;;;;;5007276;28;20461;-66
2024/03/07 10:53:11;;;;;;;10.65;6.28;;;9.60;99.60;;;;;;4987702;28;20030;-65
2024/03/07 10:56:24;;;;;;;17.73;5.72;;;10.10;99.00;;;;;;4985110;28;20397;-65
2024/03/07 10:59:11;;;;;;;16.80;6.60;;;10.10;98.60;;;;;;4999887;28;20042;-66
2024/03/07 11:02:12;;;;;;;17.42;6.50;;;11.00;98.20;;;;;;4984611;28;20030;-65
2024/03/07 11:04:39;;;;;;;18.33;7.47;;;10.50;96.00;;;;;;4999956;28;20088;-65
2024/03/07 11:07:05;;;;;;;14.50;6.38;;;10.10;97.80;;;;;;5004954;28;20109;-65
2024/03/07 11:09:33;;;;;;;14.02;6.70;;;9.90;98.10;;;;;;5007129;28;20105;-65
2024/03/07 11:12:03;;;;;;;20.15;6.85;;;10.20;97.70;;;;;;4988211;28;20042;-65
2024/03/07 11:14:31;;;;;;;30.08;8.70;;;9.90;96.70;;;;;;4991866;28;20105;-65
2024/03/07 11:16:58;;;;;;;52.60;11.27;;;9.90;97.20;;;;;;5004097;28;20113;-65
2024/03/07 11:19:36;;;;;;;18.77;7.82;;;10.70;96.70;;;;;;4991912;28;20026;-65
2024/03/07 11:22:15;;;;;;;16.17;8.30;;;12.00;96.20;;;;;;4989762;28;20037;-65
2024/03/07 11:24:42;;;;;;;14.25;6.10;;;11.70;93.30;;;;;;5005442;28;20026;-67
2024/03/07 11:27:13;;;;;;;13.18;6.10;;;11.90;93.30;;;;;;5005025;28;20045;-66
2024/03/07 11:29:57;;;;;;;18.92;6.95;;;11.80;92.70;;;;;;4991874;28;20371;-66
2024/03/07 11:32:23;;;;;;;18.23;6.53;;;11.50;94.10;;;;;;5003791;28;20479;-66
2024/03/07 11:34:50;;;;;;;18.33;7.68;;;10.80;95.10;;;;;;4991563;28;20069;-66
2024/03/07 11:37:47;;;;;;;13.40;6.88;;;11.00;93.40;;;;;;5003908;28;20371;-66
2024/03/07 11:40:33;;;;;;;14.55;6.32;;;11.10;93.40;;;;;;4990248;28;20023;-66
2024/03/07 11:43:04;;;;;;;17.35;7.28;;;11.30;93.60;;;;;;4989112;28;20034;-66
2024/03/07 11:45:38;;;;;;;19.63;7.68;;;11.70;93.60;;;;;;5006124;28;20116;-66
2024/03/07 11:48:09;;;;;;;18.10;7.28;;;11.90;92.60;;;;;;5004400;28;20034;-66
2024/03/07 11:50:39;;;;;;;;;;;12.90;92.60;;;;;;5006929;28;20479;-66
2024/03/07 11:53:07;;;;;;;17.13;7.15;;;13.70;88.20;;;;;;4989440;28;20044;-66
2024/03/07 11:55:47;;;;;;;13.52;6.07;;;14.40;84.20;;;;;;5005829;28;20109;-67
2024/03/07 11:58:21;;;;;;;20.67;7.07;;;14.00;85.40;;;;;;5004169;28;20041;-67
2024/03/07 12:00:48;;;;;;;14.50;6.28;;;14.20;81.50;;;;;;5004551;28;20084;-67
2024/03/07 12:03:20;;;;;;;15.85;6.60;;;13.80;84.40;;;;;;5005405;28;20030;-67
2024/03/07 12:05:48;;;;;;;16.08;7.38;;;15.00;81.10;;;;;;4993681;28;20041;-66
2024/03/07 12:08:14;;;;;;;16.15;5.82;;;14.00;84.40;;;;;;5006207;28;20034;-65
2024/03/07 12:10:46;;;;;;;18.90;7.53;;;16.00;79.90;;;;;;5009554;28;20430;-66
2024/03/07 12:13:15;;;;;;;13.13;5.82;;;16.10;76.70;;;;;;4993769;28;20165;-65
2024/03/07 12:15:42;;;;;;;15.65;7.00;;;15.00;76.70;;;;;;4994254;28;20084;-65
2024/03/07 12:18:10;;;;;;;14.35;6.53;;;15.40;78.70;;;;;;5008475;28;20026;-66
2024/03/07 12:20:41;;;;;;;15.23;6.22;;;14.60;78.00;;;;;;5010079;28;20030;-66
2024/03/07 12:23:08;;;;;;;;;;;14.40;78.30;;;;;;4994118;28;20038;-66
2024/03/07 12:25:39;;;;;;;12.90;6.72;;;13.40;78.90;;;;;;4994846;28;20007;-66
2024/03/07 12:28:10;;;;;;;14.25;6.70;;;13.00;83.90;;;;;;5009327;28;20038;-66
2024/03/07 12:30:51;;;;;;;13.38;6.10;;;12.80;85.10;;;;;;4994652;28;20035;-66
2024/03/07 12:33:19;;;;;;;25.60;6.18;;;13.40;86.00;;;;;;4994292;28;20120;-66
2024/03/07 12:35:51;;;;;;;12.80;5.25;;;14.10;83.00;;;;;;4993415;28;20053;-66
2024/03/07 12:38:22;;;;;;;12.88;6.30;;;13.20;84.80;;;;;;5009364;28;20471;-66
2024/03/07 12:41:14;;;;;;;17.00;5.28;;;12.90;86.80;;;;;;5007991;28;20050;-66
2024/03/07 12:43:43;;;;;;;12.20;5.05;;;13.10;86.30;;;;;;5003331;28;20050;-66
2024/03/07 12:46:13;;;;;;;18.55;5.03;;;12.20;86.20;;;;;;4991746;28;20034;-66
2024/03/07 12:48:39;;;;;;;12.60;5.05;;;12.50;87.80;;;;;;4993108;28;20030;-66